Accueil
METAR-TAF:

METAR-TAF

Aéroports :

Aéroport de Coral Harbour

Coral Harbour, Nunavut, Canada

latitude: 64-12N, longitude: 083-22W, altitude: 64 m

Observation

Le bulletin a été fait il y a 1 heure et 28 minutes, à 12:00 UTC
Vent 10 kt de nord/nord-ouest
Température -9°C
Humidité 85%
Pression 1017 hPa
Visibilité: 24.1 km
Quelques nuages à une hauteur de 4500 ft

METAR: CYZS 011200Z 34010KT 15SM FEW045 M09/M11 A3003 RMK SC3 SLP176

Heure: 09:28 (13:28 UTC)

Prévision

Le bulletin a été fait il y a 50 minutes, à 12:38 UTC
Prévision valable du 01 à 13 UTC au 02 à 01 UTC
Vent 10 kt de nord/nord-ouest
Visibilité: 10 km
Nuages épars à une hauteur de 4000 ft
Temporairement
du 01 à 13 UTC au 02 à 01 UTC
Visibilité: 10 km
Nuages fragmentés à une hauteur de 4000 ft
neige faible

TAF: CYZS 011238Z 0113/0201 34010KT P6SM SCT040 TEMPO 0113/0201 P6SM -SN BKN040 RMK NXT FCST BY 011900Z

Observations et prévisions météorologiques de plus de 4000 aéroports (messages METAR et TAF).

Les stations disponibles sont représentées par des disques jaunes et rouges sur la carte.

Passer la souris dessus pour voir le nom de la station.

Cliquer dessus pour voir les observations et prévisions météorologiques.

Pour changer de carte: cliquez sur les boutons verts avec une croix noire pour zoomer, sur le bouton vert avec un tiret pour effectuer un zoom arrière, ou sur les flèches vertes pour les cartes adjacentes.


METAR-TAF: